^^
NorthLandsweather Station Historical Data
 
Daily Summary for January 19, 2020 Units:  English    Metric   Both
Daily Weekly Monthly Yearly Custom
  Current: High: Low: Average:
Temperature: 16.9 °F 16.9 °F 8 °F 10.9 °F
Dew Point: 12.6 °F 12.6 °F 3.9 °F 6.9 °F
Humidity: 83% 85% 82% 84%
Wind Speed: 2mph 19.6mph 0mph 3.7mph
Wind Gust: 0mph 5.4mph - -
WindNW - - WSW
Pressure: 30.50 in 30.50 in 30.06 in -
Precipitation: 0 in      
Historical Graphs
 
 
Tabular Data for January 19, 2020
Time Temperature Dew Point Pressure Wind Wind Speed Wind Gust Humidity Rainfall Rate (Hourly) solar
00:00 8.4 °F 4.3 °F 30.06 in WSW 3.5 mph 0.9 mph 83% 0 in 0.00 W/m2
00:05 8.4 °F 4.3 °F 30.06 in NNE 6.9 mph 3.1 mph 83% 0 in 0.00 W/m2
00:10 8.4 °F 4.6 °F 30.07 in SSE 2.3 mph 0.2 mph 84% 0 in 0.00 W/m2
00:15 8.3 °F 4.5 °F 30.07 in WNW 4.6 mph 1.1 mph 84% 0 in 0.00 W/m2
00:20 8.3 °F 4.5 °F 30.07 in WSW 9.2 mph 5.4 mph 84% 0 in 0.00 W/m2
00:25 8.3 °F 4.5 °F 30.08 in West 5.8 mph 2.1 mph 84% 0 in 0.00 W/m2
00:30 8.3 °F 4.5 °F 30.08 in West 5.8 mph 2.5 mph 84% 0 in 0.00 W/m2
00:35 8.2 °F 4.1 °F 30.08 in Calm     83% 0 in 0.00 W/m2
00:40 8.2 °F 4.1 °F 30.09 in NNW 11.5 mph 5.1 mph 83% 0 in 0.00 W/m2
00:45 8.2 °F 4.1 °F 30.09 in NNE 3.5 mph 1.2 mph 83% 0 in 0.00 W/m2
00:50 8.1 °F 4 °F 30.09 in SSW 19.6 mph 5.3 mph 83% 0 in 0.00 W/m2
00:55 8.1 °F 4 °F 30.09 in WSW 4 mph 3.1 mph 83% 0 in 0.00 W/m2
01:00 8.1 °F 4 °F 30.10 in WNW 6 mph 1.1 mph 83% 0 in 0.00 W/m2
01:05 8.2 °F 4.1 °F 30.10 in WNW 6.9 mph 2.7 mph 83% 0 in 0.00 W/m2
01:10 8.2 °F 4.1 °F 30.10 in West 6.9 mph 3 mph 83% 0 in 0.00 W/m2
01:15 8.1 °F 4 °F 30.11 in SW 2.3 mph 0.4 mph 83% 0 in 0.00 W/m2
01:20 8.2 °F 4.1 °F 30.11 in SSW 8.1 mph 4.7 mph 83% 0 in 0.00 W/m2
01:25 8.1 °F 4 °F 30.11 in WNW 1.2 mph   83% 0 in 0.00 W/m2
01:30 8.1 °F 4 °F 30.12 in WSW 4 mph 0.3 mph 83% 0 in 0.00 W/m2
01:35 8.1 °F 4 °F 30.12 in Calm     83% 0 in 0.00 W/m2
01:40 8.1 °F 4 °F 30.12 in Calm     83% 0 in 0.00 W/m2
01:45 8 °F 3.9 °F 30.12 in WSW 3.5 mph 1 mph 83% 0 in 0.00 W/m2
01:50 8 °F 4.2 °F 30.13 in NNE 3.5 mph 1 mph 84% 0 in 0.00 W/m2
01:55 8.1 °F 4.3 °F 30.13 in West 5.8 mph 2.8 mph 84% 0 in 0.00 W/m2
02:00 8.2 °F 4.1 °F 30.13 in Calm     83% 0 in 0.00 W/m2
02:05 8.2 °F 4.4 °F 30.14 in WNW 5.8 mph 2.2 mph 84% 0 in 0.00 W/m2
02:10 8.3 °F 4.2 °F 30.14 in NW 4 mph 1.4 mph 83% 0 in 0.00 W/m2
02:15 8.4 °F 4.3 °F 30.15 in WNW 6.9 mph 4.3 mph 83% 0 in 0.00 W/m2
02:20 8.4 °F 4.3 °F 30.15 in SW 3.5 mph 0.2 mph 83% 0 in 0.00 W/m2
02:25 8.4 °F 4.3 °F 30.15 in SSW 1 mph   83% 0 in 0.00 W/m2
02:30 8.5 °F 4.4 °F 30.16 in West 10.4 mph 3.6 mph 83% 0 in 0.00 W/m2
02:35 8.5 °F 4.4 °F 30.16 in ENE 3.5 mph 0.8 mph 83% 0 in 0.00 W/m2
02:40 8.5 °F 4.4 °F 30.16 in WSW 3.5 mph 1.4 mph 83% 0 in 0.00 W/m2
02:45 8.6 °F 4.5 °F 30.16 in Calm     83% 0 in 0.00 W/m2
02:50 8.6 °F 4.5 °F 30.17 in West 9.2 mph 1.5 mph 83% 0 in 0.00 W/m2
02:55 8.7 °F 4.6 °F 30.17 in Calm     83% 0 in 0.00 W/m2
03:00 8.8 °F 4.7 °F 30.18 in WSW 7 mph 3.9 mph 83% 0 in 0.00 W/m2
03:05 8.8 °F 4.7 °F 30.18 in Calm     83% 0 in 0.00 W/m2
03:10 8.9 °F 4.8 °F 30.19 in SW 4.6 mph 3.1 mph 83% 0 in 0.00 W/m2
03:15 8.9 °F 4.8 °F 30.19 in West 3.5 mph 1.3 mph 83% 0 in 0.00 W/m2
03:20 8.9 °F 4.8 °F 30.20 in West 1.2 mph 0.1 mph 83% 0 in 0.00 W/m2
03:25 8.9 °F 4.8 °F 30.20 in WNW 3.5 mph 2.1 mph 83% 0 in 0.00 W/m2
03:30 9 °F 4.9 °F 30.20 in Calm     83% 0 in 0.00 W/m2
03:35 9 °F 4.9 °F 30.20 in SW 2.3 mph 0.1 mph 83% 0 in 0.00 W/m2
03:40 9 °F 4.9 °F 30.20 in West 1 mph   83% 0 in 0.00 W/m2
03:45 9.1 °F 5 °F 30.21 in WNW 4.6 mph 2.1 mph 83% 0 in 0.00 W/m2
03:50 9.1 °F 5 °F 30.21 in West 3.5 mph 0.4 mph 83% 0 in 0.00 W/m2
03:55 9.2 °F 5.1 °F 30.22 in NW 3.5 mph 1 mph 83% 0 in 0.00 W/m2
04:00 9.2 °F 5.1 °F 30.22 in SSW 3.5 mph 1.4 mph 83% 0 in 0.00 W/m2
04:05 9.2 °F 5.1 °F 30.22 in Calm     83% 0 in 0.00 W/m2
04:10 9.2 °F 5.1 °F 30.23 in West 6.9 mph 2.7 mph 83% 0 in 0.00 W/m2
04:15 9.2 °F 5.3 °F 30.23 in NE 2.3 mph 0.3 mph 84% 0 in 0.00 W/m2
04:20 9.4 °F 5.5 °F 30.24 in West 5 mph 0.7 mph 84% 0 in 0.00 W/m2
04:25 9.4 °F 5.5 °F 30.24 in WNW 6 mph 0.4 mph 84% 0 in 0.00 W/m2
04:30 9.4 °F 5.5 °F 30.24 in WSW 3.5 mph 0.7 mph 84% 0 in 0.00 W/m2
04:35 9.5 °F 5.6 °F 30.25 in WSW 3.5 mph 0.5 mph 84% 0 in 0.00 W/m2
04:40 9.6 °F 5.7 °F 30.25 in Calm     84% 0 in 0.00 W/m2
04:45 9.6 °F 5.7 °F 30.25 in WSW 2.3 mph 0.8 mph 84% 0 in 0.00 W/m2
04:50 9.7 °F 5.8 °F 30.25 in NNW 3.5 mph 0.5 mph 84% 0 in 0.00 W/m2
04:55 9.8 °F 5.9 °F 30.26 in Calm     84% 0 in 0.00 W/m2
05:00 9.9 °F 6 °F 30.26 in North 4.6 mph 0.9 mph 84% 0 in 0.00 W/m2
05:05 9.9 °F 6 °F 30.26 in West 4.6 mph 0.6 mph 84% 0 in 0.00 W/m2
05:10 10 °F 6.1 °F 30.26 in WNW 5.8 mph 1.4 mph 84% 0 in 0.00 W/m2
05:15 10 °F 6.1 °F 30.27 in SW 3.5 mph 1.3 mph 84% 0 in 0.00 W/m2
05:20 10 °F 6.1 °F 30.27 in Calm     84% 0 in 0.00 W/m2
05:25 10 °F 6.1 °F 30.27 in WNW 4.6 mph 2.1 mph 84% 0 in 0.00 W/m2
05:30 10 °F 6.1 °F 30.28 in SSW 3.5 mph 1.4 mph 84% 0 in 0.00 W/m2
05:35 10 °F 6.1 °F 30.28 in West 5 mph   84% 0 in 0.00 W/m2
05:40 10 °F 6.1 °F 30.29 in Calm     84% 0 in 0.00 W/m2
05:45 10.1 °F 6.2 °F 30.29 in ENE 2.3 mph 0.3 mph 84% 0 in 0.00 W/m2
05:50 10.1 °F 6.2 °F 30.29 in NW 3.5 mph 0.5 mph 84% 0 in 0.00 W/m2
05:55 10 °F 5.9 °F 30.30 in WSW 3.5 mph 1.9 mph 83% 0 in 0.00 W/m2
06:00 10 °F 5.9 °F 30.30 in WSW 8.1 mph 2.5 mph 83% 0 in 0.00 W/m2
06:05 9.9 °F 5.8 °F 30.30 in NW 1.2 mph   83% 0 in 0.00 W/m2
06:10 9.9 °F 6 °F 30.31 in West 4.6 mph 1.3 mph 84% 0 in 0.00 W/m2
06:15 10 °F 6.1 °F 30.31 in WNW 3 mph 0.5 mph 84% 0 in 0.00 W/m2
06:20 10 °F 6.1 °F 30.32 in West 4.6 mph 3.1 mph 84% 0 in 0.00 W/m2
06:25 10.1 °F 6.2 °F 30.32 in WSW 3.5 mph 1 mph 84% 0 in 0.00 W/m2
06:30 10.1 °F 6.2 °F 30.32 in SW 4.6 mph 1.1 mph 84% 0 in 0.00 W/m2
06:35 10.2 °F 6.3 °F 30.32 in West 5.8 mph 1.5 mph 84% 0 in 0.00 W/m2
06:40 10.3 °F 6.4 °F 30.32 in West 1 mph   84% 0 in 0.00 W/m2
06:45 10.3 °F 6.4 °F 30.33 in WNW 3.5 mph 0.5 mph 84% 0 in 0.00 W/m2
06:50 10.4 °F 6.5 °F 30.33 in West 6.9 mph 1.6 mph 84% 0 in 0.00 W/m2
06:55 10.5 °F 6.6 °F 30.33 in WNW 4 mph 0.5 mph 84% 0 in 0.00 W/m2
07:00 10.5 °F 6.6 °F 30.34 in WSW 3.5 mph 1.7 mph 84% 0 in 0.00 W/m2
07:05 10.6 °F 6.7 °F 30.34 in West 3.5 mph 0.5 mph 84% 0 in 0.00 W/m2
07:10 10.7 °F 7.1 °F 30.35 in NW 6.9 mph 0.7 mph 85% 0 in 0.00 W/m2
07:15 10.8 °F 6.9 °F 30.35 in NNW 3.5 mph 1.6 mph 84% 0 in 0.00 W/m2
07:20 10.8 °F 7.2 °F 30.36 in West 1.2 mph 0.2 mph 85% 0 in 0.00 W/m2
07:25 10.9 °F 7.3 °F 30.36 in NNE 1.2 mph 0.2 mph 85% 0 in 0.00 W/m2
07:30 10.9 °F 7.3 °F 30.36 in Calm     85% 0 in 0.00 W/m2
07:35 11 °F 7.4 °F 30.36 in WSW 3.5 mph 0.4 mph 85% 0 in 0.00 W/m2
07:40 11.1 °F 7.5 °F 30.37 in Calm     85% 0 in 0.00 W/m2
07:45 11.1 °F 7.2 °F 30.37 in Calm     84% 0 in 0.00 W/m2
07:50 11.1 °F 7.2 °F 30.38 in Calm     84% 0 in 0.00 W/m2
07:55 11.2 °F 7.6 °F 30.38 in NW 7 mph 0.1 mph 85% 0 in 0.00 W/m2
08:00 11.2 °F 7.3 °F 30.38 in SW 3.5 mph 0.4 mph 84% 0 in 0.00 W/m2
08:05 11.2 °F 7.3 °F 30.39 in SW 4.6 mph 1.1 mph 84% 0 in 0.00 W/m2
08:10 11.2 °F 7.3 °F 30.39 in WNW 4.6 mph 0.6 mph 84% 0 in 0.00 W/m2
08:15 11.3 °F 7.4 °F 30.39 in Calm     84% 0 in 0.00 W/m2
08:20 11.4 °F 7.8 °F 30.39 in WNW 6 mph 0.9 mph 85% 0 in 0.00 W/m2
08:25 11.4 °F 7.5 °F 30.40 in WSW 3.5 mph 0.4 mph 84% 0 in 0.00 W/m2
08:30 11.4 °F 7.8 °F 30.40 in NW 6 mph 0.1 mph 85% 0 in 0.00 W/m2
08:35 11.5 °F 7.9 °F 30.40 in WSW 5.8 mph 1.3 mph 85% 0 in 0.00 W/m2
08:40 11.6 °F 8 °F 30.40 in WNW 4.6 mph 1 mph 85% 0 in 0.00 W/m2
08:45 11.6 °F 8 °F 30.41 in WSW 4 mph   85% 0 in 0.00 W/m2
08:50 11.6 °F 8 °F 30.41 in West 4.6 mph 1.6 mph 85% 0 in 0.00 W/m2
08:55 11.6 °F 8 °F 30.41 in WSW 1.2 mph   85% 0 in 0.00 W/m2
09:00 11.7 °F 8.1 °F 30.41 in West 8.1 mph 3.5 mph 85% 0 in 0.00 W/m2
09:05 11.9 °F 8.3 °F 30.41 in WNW 3.5 mph 0.9 mph 85% 0 in 0.00 W/m2
09:10 12 °F 8.4 °F 30.42 in Calm     85% 0 in 0.00 W/m2
09:15 12.3 °F 8.7 °F 30.42 in WSW 3.5 mph 1.3 mph 85% 0 in 0.00 W/m2
09:20 12.5 °F 8.8 °F 30.43 in WSW 5.8 mph 1.5 mph 85% 0 in 0.00 W/m2
09:25 12.6 °F 8.9 °F 30.43 in Calm     85% 0 in 0.00 W/m2
09:30 12.8 °F 9.1 °F 30.43 in WNW 5.8 mph 1.4 mph 85% 0 in 0.00 W/m2
09:35 13 °F 9.3 °F 30.43 in Calm     85% 0 in 0.00 W/m2
09:40 13 °F 9.1 °F 30.44 in Calm     84% 0 in 0.00 W/m2
09:45 13.1 °F 9.2 °F 30.44 in NW 3.5 mph 0.2 mph 84% 0 in 0.00 W/m2
09:50 13.2 °F 9.5 °F 30.45 in WNW 5.8 mph 3.2 mph 85% 0 in 0.00 W/m2
09:55 13.4 °F 9.7 °F 30.44 in WNW 8.1 mph 2.4 mph 85% 0 in 0.00 W/m2
10:00 13.5 °F 9.6 °F 30.45 in WSW 4.6 mph 0.9 mph 84% 0 in 0.00 W/m2
10:05 13.5 °F 9.6 °F 30.45 in WNW 6.9 mph 2 mph 84% 0 in 0.00 W/m2
10:10 13.6 °F 9.7 °F 30.45 in Calm     84% 0 in 0.00 W/m2
10:15 13.7 °F 9.8 °F 30.46 in WSW 1.2 mph 0.2 mph 84% 0 in 0.00 W/m2
10:20 13.7 °F 9.8 °F 30.46 in Calm     84% 0 in 0.00 W/m2
10:25 13.8 °F 9.9 °F 30.46 in WSW 9.2 mph 4.3 mph 84% 0 in 0.00 W/m2
10:30 13.9 °F 10 °F 30.46 in Calm     84% 0 in 0.00 W/m2
10:35 14 °F 10.1 °F 30.47 in WNW 8.1 mph 2 mph 84% 0 in 0.00 W/m2
10:40 14.1 °F 10.2 °F 30.47 in Calm     84% 0 in 0.00 W/m2
10:45 14.3 °F 10.4 °F 30.47 in Calm     84% 0 in 0.00 W/m2
10:50 14.5 °F 10.5 °F 30.47 in West 2.3 mph 0.7 mph 84% 0 in 0.00 W/m2
10:55 14.5 °F 10.5 °F 30.47 in SW 3.5 mph 0.8 mph 84% 0 in 0.00 W/m2
11:00 14.6 °F 10.6 °F 30.48 in West 3 mph 0.5 mph 84% 0 in 0.00 W/m2
11:05 14.6 °F 10.4 °F 30.48 in WSW 3.5 mph 0.6 mph 83% 0 in 0.00 W/m2
11:10 14.8 °F 10.8 °F 30.49 in WNW 2.3 mph 0.3 mph 84% 0 in 0.00 W/m2
11:15 15 °F 11 °F 30.49 in WNW 6.9 mph 1.8 mph 84% 0 in 0.00 W/m2
11:20 15.1 °F 11.1 °F 30.48 in WNW 6.9 mph 1.4 mph 84% 0 in 0.00 W/m2
11:25 15.4 °F 11.4 °F 30.48 in WNW 3.5 mph 1.2 mph 84% 0 in 0.00 W/m2
11:30 15.5 °F 11.3 °F 30.48 in NNW 3.5 mph 1.8 mph 83% 0 in 0.00 W/m2
11:35 15.6 °F 11.6 °F 30.49 in WNW 3.5 mph 0.3 mph 84% 0 in 0.00 W/m2
11:40 15.8 °F 11.6 °F 30.49 in WNW 5.8 mph 2.3 mph 83% 0 in 0.00 W/m2
11:45 16.1 °F 11.8 °F 30.49 in NNW 3.5 mph 0.9 mph 83% 0 in 0.00 W/m2
11:50 16.3 °F 12 °F 30.49 in West 5 mph 0.2 mph 83% 0 in 0.00 W/m2
11:55 16.4 °F 11.9 °F 30.50 in WSW 1 mph   82% 0 in 0.00 W/m2
12:00 16.4 °F 11.9 °F 30.50 in South 2.3 mph 0.2 mph 82% 0 in 0.00 W/m2
12:05 16.4 °F 12.1 °F 30.50 in WSW 3.5 mph 0.9 mph 83% 0 in 0.00 W/m2
12:10 16.6 °F 12.3 °F 30.50 in West 2.3 mph 0.3 mph 83% 0 in 0.00 W/m2
12:15 16.6 °F 12.1 °F 30.50 in West 6.9 mph 2.9 mph 82% 0 in 0.00 W/m2
12:20 16.6 °F 12.3 °F 30.50 in SSW 2.3 mph 0.1 mph 83% 0 in 0.00 W/m2
12:25 16.9 °F 12.6 °F 30.50 in NW 2 mph   83% 0 in 0.00 W/m2
Winter, Wisconsin USA
Compliments of Weather Underground - 2 mb